createdAt,value
2019-02-15T00:00:36.490Z,86.22
2019-02-15T00:01:36.461Z,86.19
2019-02-15T00:02:36.446Z,85.98
2019-02-15T00:03:36.458Z,86.50
2019-02-15T00:04:36.435Z,86.50
2019-02-15T00:05:36.436Z,85.67
2019-02-15T00:06:36.413Z,84.83
2019-02-15T00:07:36.402Z,85.14
2019-02-15T00:08:36.381Z,85.25
2019-02-15T00:09:36.382Z,84.52
2019-02-15T00:10:36.400Z,84.90
2019-02-15T00:11:36.347Z,85.31
2019-02-15T00:12:36.345Z,84.69
2019-02-15T00:13:36.334Z,85.00
2019-02-15T00:14:36.317Z,85.21
2019-02-15T00:15:36.340Z,84.80
2019-02-15T00:16:36.294Z,84.17
2019-02-15T00:17:36.302Z,84.27
2019-02-15T00:18:36.278Z,83.96
2019-02-15T00:19:36.272Z,83.30
2019-02-15T00:20:36.268Z,83.44
2019-02-15T00:21:36.265Z,83.75
2019-02-15T00:22:36.243Z,83.13
2019-02-15T00:23:36.234Z,83.23
2019-02-15T00:24:36.206Z,82.99
2019-02-15T00:25:36.194Z,82.99
2019-02-15T00:26:36.218Z,83.09
2019-02-15T00:27:36.174Z,83.13
2019-02-15T00:28:36.169Z,82.71
2019-02-15T00:29:36.166Z,83.30
2019-02-15T00:30:36.144Z,83.03
2019-02-15T00:31:36.187Z,83.03
2019-02-15T00:32:36.123Z,82.92
2019-02-15T00:33:36.129Z,82.57
2019-02-15T00:34:36.100Z,82.68
2019-02-15T00:35:36.094Z,82.30
2019-02-15T00:36:36.101Z,82.40
2019-02-15T00:37:36.068Z,82.36
2019-02-15T00:38:36.050Z,82.05
2019-02-15T00:39:36.046Z,82.20
2019-02-15T00:40:36.030Z,82.51
2019-02-15T00:41:36.064Z,82.30
2019-02-15T00:42:36.010Z,82.30
2019-02-15T00:43:36.002Z,81.98
2019-02-15T00:44:35.996Z,81.98
2019-02-15T00:45:35.980Z,81.98
2019-02-15T00:46:36.004Z,81.50
2019-02-15T00:47:36.008Z,81.46
2019-02-15T00:48:35.957Z,81.88
2019-02-15T00:49:35.939Z,81.46
2019-02-15T00:50:35.968Z,81.50
2019-02-15T00:51:35.915Z,81.15
2019-02-15T00:52:35.948Z,81.19
2019-02-15T00:53:35.898Z,81.09
2019-02-15T00:54:35.886Z,81.29
2019-02-15T00:55:35.866Z,81.71
2019-02-15T00:56:35.893Z,81.92
2019-02-15T00:57:35.871Z,81.65
2019-02-15T00:58:35.860Z,82.27
2019-02-15T00:59:35.822Z,82.17
2019-02-15T01:00:35.825Z,82.17
2019-02-15T01:01:35.798Z,81.75
2019-02-15T01:02:35.821Z,82.48
2019-02-15T01:03:35.790Z,82.06
2019-02-15T01:04:35.790Z,82.58
2019-02-15T01:05:35.762Z,81.96
2019-02-15T01:06:35.746Z,81.85
2019-02-15T01:07:35.758Z,81.85
2019-02-15T01:08:35.733Z,81.89
2019-02-15T01:09:35.752Z,82.27
2019-02-15T01:10:35.731Z,81.96
2019-02-15T01:11:35.697Z,82.06
2019-02-15T01:12:35.708Z,82.17
2019-02-15T01:13:35.680Z,82.31
2019-02-15T01:14:35.691Z,82.10
2019-02-15T01:15:35.654Z,82.41
2019-02-15T01:16:35.636Z,82.37
2019-02-15T01:17:35.655Z,82.37
2019-02-15T01:18:35.643Z,82.31
2019-02-15T01:19:35.656Z,82.10
2019-02-15T01:20:35.610Z,81.89
2019-02-15T01:21:35.584Z,82.20
2019-02-15T01:22:35.597Z,82.20
2019-02-15T01:23:35.580Z,82.41
2019-02-15T01:24:35.556Z,82.20
2019-02-15T01:25:35.560Z,82.10
2019-02-15T01:26:35.531Z,82.20
2019-02-15T01:27:35.515Z,82.62
2019-02-15T01:28:35.550Z,82.62
2019-02-15T01:29:35.510Z,82.51
2019-02-15T01:30:35.494Z,82.93
2019-02-15T01:31:35.506Z,82.20
2019-02-15T01:32:35.467Z,82.31
2019-02-15T01:33:35.488Z,82.82
2019-02-15T01:34:35.484Z,82.72
2019-02-15T01:35:35.456Z,82.31
2019-02-15T01:36:35.426Z,82.31
2019-02-15T01:37:35.414Z,82.51
2019-02-15T01:38:35.429Z,82.24
2019-02-15T01:39:35.399Z,82.41
2019-02-15T01:40:35.375Z,82.41
2019-02-15T01:41:35.389Z,82.45
2019-02-15T01:42:35.363Z,82.65
2019-02-15T01:43:40.221Z,82.65
2019-02-15T01:44:36.353Z,82.97
2019-02-15T01:45:35.320Z,82.76
2019-02-15T01:46:35.330Z,82.65
2019-02-15T01:47:35.298Z,83.01
2019-02-15T01:48:35.307Z,83.11
2019-02-15T01:49:35.299Z,83.11
2019-02-15T01:50:35.266Z,83.22
2019-02-15T01:51:35.263Z,83.22
2019-02-15T01:52:35.249Z,83.22
2019-02-15T01:53:35.275Z,83.67
2019-02-15T01:54:35.223Z,83.25
2019-02-15T01:55:35.245Z,83.32
2019-02-15T01:56:35.198Z,83.63
2019-02-15T01:57:35.195Z,83.57
2019-02-15T01:58:35.210Z,84.40
2019-02-15T01:59:35.172Z,84.78
2019-02-15T02:00:35.186Z,84.30
2019-02-15T02:01:35.152Z,83.67
2019-02-15T02:02:35.140Z,83.78
2019-02-15T02:03:35.134Z,84.30
2019-02-15T02:04:35.147Z,83.36
2019-02-15T02:05:35.117Z,83.67
2019-02-15T02:06:35.103Z,83.98
2019-02-15T02:07:35.084Z,83.67
2019-02-15T02:08:35.098Z,83.67
2019-02-15T02:09:35.063Z,84.09
2019-02-15T02:10:35.083Z,84.19
2019-02-15T02:11:35.075Z,84.09
2019-02-15T02:12:35.025Z,84.09
2019-02-15T02:13:35.015Z,83.67
2019-02-15T02:14:35.056Z,83.67
2019-02-15T02:15:35.017Z,84.30
2019-02-15T02:16:34.981Z,84.50
2019-02-15T02:17:35.020Z,84.12
2019-02-15T02:18:34.963Z,84.23
2019-02-15T02:19:34.960Z,83.71
2019-02-15T02:20:35.000Z,84.61
2019-02-15T02:21:34.931Z,85.06
2019-02-15T02:22:34.922Z,85.38
2019-02-15T02:23:34.910Z,84.96
2019-02-15T02:24:34.897Z,84.86
2019-02-15T02:25:34.916Z,84.86
2019-02-15T02:26:34.889Z,84.86
2019-02-15T02:27:34.858Z,85.49
2019-02-15T02:28:34.850Z,85.17
2019-02-15T02:29:34.837Z,84.75
2019-02-15T02:30:34.868Z,84.65
2019-02-15T02:31:34.826Z,84.75
2019-02-15T02:32:34.806Z,84.55
2019-02-15T02:33:34.815Z,84.44
2019-02-15T02:34:34.781Z,85.06
2019-02-15T02:35:34.816Z,85.21
2019-02-15T02:36:34.767Z,84.86
2019-02-15T02:37:34.753Z,85.38
2019-02-15T02:38:34.749Z,85.42
2019-02-15T02:39:34.733Z,84.79
2019-02-15T02:40:34.717Z,84.69
2019-02-15T02:41:34.743Z,84.69
2019-02-15T02:42:34.700Z,84.48
2019-02-15T02:43:34.689Z,84.89
2019-02-15T02:44:34.684Z,85.11
2019-02-15T02:45:34.666Z,85.21
2019-02-15T02:46:34.671Z,85.00
2019-02-15T02:47:34.662Z,85.31
2019-02-15T02:48:34.632Z,85.21
2019-02-15T02:49:34.629Z,84.94
2019-02-15T02:50:34.647Z,84.62
2019-02-15T02:51:34.620Z,84.94
2019-02-15T02:52:34.587Z,85.25
2019-02-15T02:53:34.603Z,85.14
2019-02-15T02:54:34.573Z,84.94
2019-02-15T02:55:34.556Z,85.25
2019-02-15T02:56:34.561Z,84.73
2019-02-15T02:57:34.552Z,85.46
2019-02-15T02:58:34.521Z,84.66
2019-02-15T02:59:34.519Z,83.72
2019-02-15T03:00:34.511Z,84.14
2019-02-15T03:01:34.503Z,84.87
2019-02-15T03:02:34.506Z,84.56
2019-02-15T03:03:34.472Z,85.14
2019-02-15T03:04:34.498Z,84.56
2019-02-15T03:05:34.452Z,84.34
2019-02-15T03:06:34.455Z,84.77
2019-02-15T03:07:34.447Z,84.97
2019-02-15T03:08:34.459Z,85.29
2019-02-15T03:09:34.425Z,85.39
2019-02-15T03:10:34.400Z,85.29
2019-02-15T03:11:34.397Z,85.39
2019-02-15T03:12:34.390Z,85.39
2019-02-15T03:13:34.394Z,85.71
2019-02-15T03:14:34.355Z,85.39
2019-02-15T03:15:34.371Z,85.60
2019-02-15T03:16:34.324Z,85.39
2019-02-15T03:17:34.362Z,85.08
2019-02-15T03:18:34.332Z,85.08
2019-02-15T03:19:34.291Z,85.50
2019-02-15T03:20:34.283Z,85.29
2019-02-15T03:21:34.282Z,85.60
2019-02-15T03:22:34.277Z,85.39
2019-02-15T03:23:34.274Z,85.29
2019-02-15T03:24:34.243Z,85.71
2019-02-15T03:25:34.233Z,85.29
2019-02-15T03:26:34.225Z,85.71
2019-02-15T03:27:34.237Z,85.71
2019-02-15T03:28:34.213Z,85.29
2019-02-15T03:29:34.207Z,86.27
2019-02-15T03:30:34.200Z,86.33
2019-02-15T03:31:34.172Z,86.75
2019-02-15T03:32:34.164Z,86.65
2019-02-15T03:33:34.171Z,85.91
2019-02-15T03:34:36.275Z,85.29
2019-02-15T03:35:34.150Z,86.02
2019-02-15T03:36:34.155Z,86.33
2019-02-15T03:37:34.101Z,86.44
2019-02-15T03:38:34.122Z,86.65
2019-02-15T03:39:34.077Z,86.58
2019-02-15T03:40:34.091Z,86.75
2019-02-15T03:41:34.082Z,85.71
2019-02-15T03:42:34.076Z,85.29
2019-02-15T03:43:34.070Z,85.60
2019-02-15T03:44:34.041Z,85.39
2019-02-15T03:45:34.034Z,85.60
2019-02-15T03:46:34.008Z,85.71
2019-02-15T03:47:34.006Z,85.29
2019-02-15T03:48:34.018Z,85.18
2019-02-15T03:49:33.975Z,85.29
2019-02-15T03:50:33.957Z,85.60
2019-02-15T03:51:33.949Z,85.39
2019-02-15T03:52:33.946Z,86.02
2019-02-15T03:53:33.953Z,85.71
2019-02-15T03:54:33.942Z,85.39
2019-02-15T03:55:33.931Z,86.13
2019-02-15T03:56:33.907Z,85.81
2019-02-15T03:57:33.887Z,86.23
2019-02-15T03:58:33.882Z,86.65
2019-02-15T03:59:33.871Z,86.54
2019-02-15T04:00:33.879Z,86.85
2019-02-15T04:01:33.854Z,86.65
2019-02-15T04:02:33.829Z,86.13
2019-02-15T04:03:33.821Z,86.13
2019-02-15T04:04:33.825Z,86.13
2019-02-15T04:05:33.807Z,85.81
2019-02-15T04:06:33.801Z,86.23
2019-02-15T04:07:33.785Z,86.23
2019-02-15T04:08:33.768Z,86.44
2019-02-15T04:09:33.780Z,86.13
2019-02-15T04:10:33.762Z,86.13
2019-02-15T04:11:33.766Z,85.71
2019-02-15T04:12:33.727Z,85.53
2019-02-15T04:13:33.721Z,85.60
2019-02-15T04:14:33.727Z,85.60
2019-02-15T04:15:33.690Z,85.71
2019-02-15T04:16:33.679Z,86.13
2019-02-15T04:17:33.673Z,86.96
2019-02-15T04:18:33.667Z,86.79
2019-02-15T04:19:33.671Z,86.75
2019-02-15T04:20:33.638Z,86.58
2019-02-15T04:21:33.629Z,86.75
2019-02-15T04:22:33.619Z,85.12
2019-02-15T04:23:33.657Z,85.08
2019-02-15T04:24:33.610Z,85.01
2019-02-15T04:25:33.600Z,85.74
2019-02-15T04:26:33.575Z,85.64
2019-02-15T04:27:33.569Z,86.69
2019-02-15T04:28:33.550Z,86.58
2019-02-15T04:29:33.543Z,86.79
2019-02-15T04:30:33.551Z,86.16
2019-02-15T04:31:33.550Z,85.96
2019-02-15T04:32:33.506Z,86.47
2019-02-15T04:33:33.497Z,86.06
2019-02-15T04:34:33.492Z,85.68
2019-02-15T04:35:33.501Z,85.47
2019-02-15T04:36:33.471Z,85.58
2019-02-15T04:37:33.454Z,86.20
2019-02-15T04:38:33.447Z,87.04
2019-02-15T04:39:33.442Z,86.20
2019-02-15T04:40:33.453Z,86.52
2019-02-15T04:41:33.452Z,86.83
2019-02-15T04:42:33.402Z,86.93
2019-02-15T04:43:33.394Z,87.46
2019-02-15T04:44:42.364Z,87.25
2019-02-15T04:45:34.392Z,87.35
2019-02-15T04:46:33.371Z,87.46
2019-02-15T04:47:33.346Z,86.52
2019-02-15T04:48:33.344Z,86.41
2019-02-15T04:49:33.331Z,86.52
2019-02-15T04:50:33.344Z,86.10
2019-02-15T04:51:33.321Z,86.10
2019-02-15T04:52:33.309Z,86.52
2019-02-15T04:53:33.282Z,87.04
2019-02-15T04:54:33.287Z,86.62
2019-02-15T04:55:33.260Z,87.56
2019-02-15T04:56:33.272Z,87.35
2019-02-15T04:57:33.249Z,87.15
2019-02-15T04:58:33.224Z,87.25
2019-02-15T04:59:33.237Z,86.93
2019-02-15T05:00:33.202Z,87.35
2019-02-15T05:01:33.209Z,86.93
2019-02-15T05:02:33.181Z,87.04
2019-02-15T05:03:33.174Z,87.15
2019-02-15T05:04:33.158Z,87.25
2019-02-15T05:05:33.153Z,87.56
2019-02-15T05:06:33.154Z,87.15
2019-02-15T05:07:33.152Z,86.83
2019-02-15T05:08:33.161Z,87.15
2019-02-15T05:09:33.114Z,87.25
2019-02-15T05:10:33.115Z,87.46
2019-02-15T05:11:33.117Z,87.46
2019-02-15T05:12:33.080Z,86.31
2019-02-15T05:13:33.088Z,87.10
2019-02-15T05:14:33.101Z,86.41
2019-02-15T05:15:33.046Z,87.25
2019-02-15T05:16:33.055Z,87.10
2019-02-15T05:17:33.039Z,87.25
2019-02-15T05:18:33.009Z,87.25
2019-02-15T05:19:32.999Z,87.04
2019-02-15T05:20:32.999Z,87.15
2019-02-15T05:21:32.981Z,87.15
2019-02-15T05:22:33.032Z,87.10
2019-02-15T05:23:32.965Z,86.93
2019-02-15T05:24:32.964Z,87.25
2019-02-15T05:25:32.932Z,87.21
2019-02-15T05:26:32.951Z,87.42
2019-02-15T05:27:32.950Z,87.35
2019-02-15T05:28:32.910Z,87.00
2019-02-15T05:29:32.898Z,87.21
2019-02-15T05:30:32.895Z,86.58
2019-02-15T05:31:32.892Z,86.69
2019-02-15T05:32:32.878Z,86.37
2019-02-15T05:33:32.852Z,86.37
2019-02-15T05:34:32.842Z,86.90
2019-02-15T05:35:32.836Z,86.69
2019-02-15T05:36:32.825Z,86.69
2019-02-15T05:37:32.822Z,86.16
2019-02-15T05:38:32.805Z,86.16
2019-02-15T05:39:32.794Z,86.27
2019-02-15T05:40:32.774Z,86.79
2019-02-15T05:41:32.770Z,86.79
2019-02-15T05:42:32.812Z,86.79
2019-02-15T05:43:32.741Z,86.90
2019-02-15T05:44:32.749Z,86.90
2019-02-15T05:45:32.741Z,86.37
2019-02-15T05:46:32.707Z,86.58
2019-02-15T05:47:32.718Z,86.79
2019-02-15T05:48:32.689Z,86.90
2019-02-15T05:49:32.682Z,87.00
2019-02-15T05:50:32.663Z,86.79
2019-02-15T05:51:32.686Z,86.75
2019-02-15T05:52:32.665Z,86.65
2019-02-15T05:53:32.632Z,86.90
2019-02-15T05:54:32.670Z,86.69
2019-02-15T05:55:32.625Z,87.52
2019-02-15T05:56:32.599Z,87.31
2019-02-15T05:57:32.598Z,86.37
2019-02-15T05:58:32.624Z,86.79
2019-02-15T05:59:32.576Z,87.31
2019-02-15T06:00:37.009Z,86.79
2019-02-15T06:01:32.551Z,86.96
2019-02-15T06:02:32.575Z,87.17
2019-02-15T06:03:32.550Z,86.96
2019-02-15T06:04:32.517Z,87.07
2019-02-15T06:05:32.525Z,87.17
2019-02-15T06:06:32.493Z,86.85
2019-02-15T06:07:32.496Z,87.17
2019-02-15T06:08:32.497Z,87.17
2019-02-15T06:09:32.459Z,87.17
2019-02-15T06:10:32.446Z,87.07
2019-02-15T06:11:32.459Z,87.07
2019-02-15T06:12:32.429Z,87.07
2019-02-15T06:13:32.454Z,87.48
2019-02-15T06:14:32.406Z,87.38
2019-02-15T06:15:32.397Z,87.07
2019-02-15T06:16:32.396Z,86.96
2019-02-15T06:17:32.375Z,87.07
2019-02-15T06:18:32.400Z,87.27
2019-02-15T06:19:32.379Z,86.96
2019-02-15T06:20:32.342Z,87.27
2019-02-15T06:21:32.329Z,87.38
2019-02-15T06:22:32.331Z,86.96
2019-02-15T06:23:32.306Z,87.17
2019-02-15T06:24:32.343Z,87.17
2019-02-15T06:25:32.282Z,87.27
2019-02-15T06:26:32.275Z,86.96
2019-02-15T06:27:32.264Z,87.17
2019-02-15T06:28:32.259Z,86.33
2019-02-15T06:29:32.277Z,86.33
2019-02-15T06:30:32.254Z,86.75
2019-02-15T06:31:32.236Z,86.33
2019-02-15T06:32:32.232Z,86.33
2019-02-15T06:33:32.199Z,86.54
2019-02-15T06:34:32.236Z,87.27
2019-02-15T06:35:33.160Z,87.07
2019-02-15T06:36:32.182Z,87.38
2019-02-15T06:37:32.184Z,87.17
2019-02-15T06:38:34.808Z,87.13
2019-02-15T06:39:32.165Z,86.96
2019-02-15T06:40:32.146Z,87.27
2019-02-15T06:41:32.129Z,86.44
2019-02-15T06:42:32.104Z,86.33
2019-02-15T06:43:32.094Z,86.85
2019-02-15T06:44:32.147Z,86.75
2019-02-15T06:45:32.078Z,86.44
2019-02-15T06:46:32.090Z,86.29
2019-02-15T06:47:32.054Z,86.44
2019-02-15T06:48:32.059Z,87.27
2019-02-15T06:49:32.045Z,86.33
2019-02-15T06:50:32.034Z,86.54
2019-02-15T06:51:32.006Z,86.75
2019-02-15T06:52:31.997Z,86.75
2019-02-15T06:53:31.985Z,86.75
2019-02-15T06:54:31.979Z,86.33
2019-02-15T06:55:32.000Z,87.17
2019-02-15T06:56:31.952Z,86.96
2019-02-15T06:57:31.941Z,87.17
2019-02-15T06:58:31.974Z,86.33
2019-02-15T06:59:31.927Z,86.65
2019-02-15T07:00:31.926Z,86.54
2019-02-15T07:01:31.898Z,86.54
2019-02-15T07:02:31.892Z,86.51
2019-02-15T07:03:31.881Z,86.54
2019-02-15T07:04:31.902Z,86.61
2019-02-15T07:05:31.878Z,86.71
2019-02-15T07:06:31.867Z,86.61
2019-02-15T07:07:31.837Z,86.19
2019-02-15T07:08:31.913Z,85.98
2019-02-15T07:09:31.823Z,86.05
2019-02-15T07:10:31.824Z,86.05
2019-02-15T07:11:31.795Z,85.63
2019-02-15T07:12:31.819Z,85.63
2019-02-15T07:13:31.766Z,85.49
2019-02-15T07:14:31.779Z,85.13
2019-02-15T07:15:33.709Z,84.05
2019-02-15T07:16:31.768Z,83.32
2019-02-15T07:17:31.722Z,82.31
2019-02-15T07:18:31.718Z,81.33
2019-02-15T07:19:31.708Z,80.46
2019-02-15T07:20:31.699Z,79.28
2019-02-15T07:21:31.697Z,78.41
2019-02-15T07:22:31.674Z,77.23
2019-02-15T07:23:31.661Z,77.44
2019-02-15T07:24:31.665Z,76.99
2019-02-15T07:25:31.642Z,75.92
2019-02-15T07:26:31.647Z,75.67
2019-02-15T07:27:31.637Z,74.71
2019-02-15T07:28:31.605Z,73.43
2019-02-15T07:29:31.594Z,73.63
2019-02-15T07:30:31.588Z,72.46
2019-02-15T07:31:31.596Z,71.91
2019-02-15T07:32:31.560Z,71.36
2019-02-15T07:33:31.570Z,71.56
2019-02-15T07:34:31.565Z,71.77
2019-02-15T07:35:31.539Z,70.70
2019-02-15T07:36:31.568Z,70.08
2019-02-15T07:37:31.522Z,69.53
2019-02-15T07:38:31.498Z,69.04
2019-02-15T07:39:31.499Z,69.74
2019-02-15T07:40:31.477Z,69.95
2019-02-15T07:41:31.497Z,69.01
2019-02-15T07:42:31.455Z,68.77
2019-02-15T07:43:31.442Z,68.26
2019-02-15T07:44:31.445Z,68.46
2019-02-15T07:45:31.425Z,67.02
2019-02-15T07:46:31.414Z,67.61
2019-02-15T07:47:31.447Z,68.33
2019-02-15T07:48:31.411Z,67.91
2019-02-15T07:49:31.387Z,67.19
2019-02-15T07:50:31.371Z,67.09
2019-02-15T07:51:31.355Z,66.36
2019-02-15T07:52:31.369Z,67.06
2019-02-15T07:53:31.341Z,66.64
2019-02-15T07:54:31.343Z,66.33
2019-02-15T07:55:31.317Z,66.61
2019-02-15T07:56:31.301Z,67.03
2019-02-15T07:57:31.331Z,67.13
2019-02-15T07:58:31.289Z,66.72
2019-02-15T07:59:31.278Z,66.41
2019-02-15T08:00:31.275Z,65.37
2019-02-15T08:01:31.266Z,65.17
2019-02-15T08:02:31.276Z,65.55
2019-02-15T08:03:31.225Z,66.69
2019-02-15T08:04:31.215Z,65.86
2019-02-15T08:05:31.202Z,64.93
2019-02-15T08:06:31.206Z,66.97
2019-02-15T08:07:31.182Z,67.61
2019-02-15T08:08:31.197Z,67.48
2019-02-15T08:09:31.176Z,67.17
2019-02-15T08:10:31.144Z,66.76
2019-02-15T08:11:31.149Z,66.76
2019-02-15T08:12:31.122Z,66.66
2019-02-15T08:13:31.128Z,66.24
2019-02-15T08:14:31.101Z,65.21
2019-02-15T08:15:36.317Z,65.42
2019-02-15T08:16:32.084Z,66.45
2019-02-15T08:17:31.083Z,66.31
2019-02-15T08:18:31.083Z,65.49
2019-02-15T08:19:31.066Z,66.31
2019-02-15T08:20:31.041Z,65.15
2019-02-15T08:21:31.024Z,64.95
2019-02-15T08:22:31.022Z,64.84
2019-02-15T08:23:31.022Z,65.77
2019-02-15T08:24:31.012Z,65.05
2019-02-15T08:25:30.987Z,64.81
2019-02-15T08:26:30.978Z,66.05
2019-02-15T08:27:31.519Z,66.67
2019-02-15T08:28:30.981Z,64.81
2019-02-15T08:29:30.952Z,66.25
2019-02-15T08:30:30.933Z,64.19
2019-02-15T08:31:30.917Z,65.33
2019-02-15T08:32:30.928Z,64.58
2019-02-15T08:33:30.907Z,64.27
2019-02-15T08:34:30.899Z,64.27
2019-02-15T08:35:30.884Z,61.18
2019-02-15T08:36:30.859Z,62.52
2019-02-15T08:37:30.847Z,60.25
2019-02-15T08:38:30.836Z,61.00
2019-02-15T08:39:30.851Z,60.05
2019-02-15T08:40:30.829Z,61.28
2019-02-15T08:41:30.808Z,62.00
2019-02-15T08:42:30.793Z,61.80
2019-02-15T08:43:30.794Z,61.49
2019-02-15T08:44:30.796Z,59.63
2019-02-15T08:45:30.757Z,60.25
2019-02-15T08:46:30.747Z,60.05
2019-02-15T08:47:30.739Z,60.97
2019-02-15T08:48:30.725Z,60.35
2019-02-15T08:49:30.731Z,60.35
2019-02-15T08:50:30.737Z,61.07
2019-02-15T08:51:30.702Z,59.91
2019-02-15T08:52:30.705Z,60.02
2019-02-15T08:53:30.675Z,59.81
2019-02-15T08:54:30.681Z,60.12
2019-02-15T08:55:30.655Z,61.56
2019-02-15T08:56:30.643Z,61.43
2019-02-15T08:57:30.627Z,59.99
2019-02-15T08:58:30.624Z,58.96
2019-02-15T08:59:30.625Z,59.65
2019-02-15T09:00:30.595Z,58.52
2019-02-15T09:01:30.597Z,57.39
2019-02-15T09:02:30.582Z,59.24
2019-02-15T09:03:30.595Z,59.24
2019-02-15T09:04:30.567Z,57.59
2019-02-15T09:05:30.594Z,57.59
2019-02-15T09:06:30.557Z,57.90
2019-02-15T09:07:30.522Z,56.67
2019-02-15T09:08:30.515Z,57.29
2019-02-15T09:09:30.498Z,57.50
2019-02-15T09:10:30.514Z,57.82
2019-02-15T09:11:30.484Z,57.73
2019-02-15T09:12:30.464Z,57.82
2019-02-15T09:13:30.455Z,58.01
2019-02-15T09:14:30.443Z,57.70
2019-02-15T09:15:30.455Z,57.82
2019-02-15T09:16:30.423Z,57.80
2019-02-15T09:17:30.417Z,57.73
2019-02-15T09:18:30.418Z,57.08
2019-02-15T09:19:30.390Z,57.93
2019-02-15T09:20:30.396Z,55.87
2019-02-15T09:21:30.376Z,56.90
2019-02-15T09:22:30.368Z,57.82
2019-02-15T09:23:30.353Z,57.18
2019-02-15T09:24:30.351Z,56.98
2019-02-15T09:25:30.338Z,57.31
2019-02-15T09:26:30.321Z,57.29
2019-02-15T09:27:30.303Z,57.18
2019-02-15T09:28:30.292Z,56.85
2019-02-15T09:29:30.288Z,56.95
2019-02-15T09:30:30.296Z,56.23
2019-02-15T09:31:30.270Z,56.13
2019-02-15T09:32:30.246Z,56.74
2019-02-15T09:33:30.245Z,56.54
2019-02-15T09:34:30.230Z,56.85
2019-02-15T09:35:30.216Z,56.72
2019-02-15T09:36:30.225Z,55.38
2019-02-15T09:37:30.194Z,55.59
2019-02-15T09:38:30.183Z,55.59
2019-02-15T09:39:30.172Z,56.21
2019-02-15T09:40:30.190Z,54.97
2019-02-15T09:41:30.192Z,55.66
2019-02-15T09:42:30.150Z,55.05
2019-02-15T09:43:30.136Z,55.36
2019-02-15T09:44:30.117Z,54.85
2019-02-15T09:45:30.110Z,54.74
2019-02-15T09:46:30.112Z,55.26
2019-02-15T09:47:30.095Z,55.02
2019-02-15T09:48:30.073Z,55.41
2019-02-15T09:49:30.064Z,53.77
2019-02-15T09:50:30.059Z,54.69
2019-02-15T09:51:30.053Z,53.64
2019-02-15T09:52:30.050Z,54.36
2019-02-15T09:53:30.034Z,53.85
2019-02-15T09:54:30.020Z,53.23
2019-02-15T09:55:30.012Z,54.13
2019-02-15T09:56:30.001Z,54.15
2019-02-15T09:57:29.979Z,53.00
2019-02-15T09:58:29.961Z,53.10
2019-02-15T09:59:29.951Z,52.69
2019-02-15T10:00:29.932Z,52.47
2019-02-15T10:01:29.953Z,53.16
2019-02-15T10:02:29.957Z,52.95
2019-02-15T10:03:29.900Z,52.03
2019-02-15T10:04:29.904Z,52.13
2019-02-15T10:05:29.889Z,51.29
2019-02-15T10:06:29.870Z,52.00
2019-02-15T10:07:29.915Z,51.67
2019-02-15T10:08:29.862Z,50.55
2019-02-15T10:09:29.837Z,51.24
2019-02-15T10:10:29.829Z,52.06
2019-02-15T10:11:29.818Z,50.22
2019-02-15T10:12:29.826Z,50.63
2019-02-15T10:13:29.797Z,50.60
2019-02-15T10:14:29.779Z,48.66
2019-02-15T10:15:29.782Z,49.15
2019-02-15T10:16:31.426Z,48.76
2019-02-15T10:17:29.776Z,49.05
2019-02-15T10:18:29.744Z,49.15
2019-02-15T10:19:29.728Z,47.61
2019-02-15T10:20:29.720Z,48.54
2019-02-15T10:21:29.708Z,48.94
2019-02-15T10:22:29.727Z,49.25
2019-02-15T10:23:29.714Z,48.31
2019-02-15T10:24:29.683Z,48.51
2019-02-15T10:25:29.673Z,47.29
2019-02-15T10:26:29.646Z,47.90
2019-02-15T10:27:29.640Z,48.82
2019-02-15T10:28:29.652Z,47.90
2019-02-15T10:29:29.631Z,49.00
2019-02-15T10:30:29.601Z,48.08
2019-02-15T10:31:29.593Z,46.45
2019-02-15T10:32:29.586Z,47.24
2019-02-15T10:33:29.590Z,47.34
2019-02-15T10:34:29.577Z,47.14
2019-02-15T10:35:29.557Z,47.14
2019-02-15T10:36:29.545Z,46.33
2019-02-15T10:37:29.526Z,46.73
2019-02-15T10:38:29.532Z,46.20
2019-02-15T10:39:29.542Z,44.78
2019-02-15T10:40:29.494Z,45.08
2019-02-15T10:41:29.482Z,46.71
2019-02-15T10:42:29.500Z,45.18
2019-02-15T10:43:29.489Z,45.49
2019-02-15T10:44:29.480Z,45.08
2019-02-15T10:45:29.439Z,45.51
2019-02-15T10:46:37.497Z,46.71
2019-02-15T10:47:30.424Z,46.71
2019-02-15T10:48:29.462Z,44.75
2019-02-15T10:49:29.421Z,44.37
2019-02-15T10:50:29.390Z,45.69
2019-02-15T10:51:29.372Z,45.67
2019-02-15T10:52:29.364Z,45.36
2019-02-15T10:53:29.354Z,43.94
2019-02-15T10:54:29.360Z,44.34
2019-02-15T10:55:29.329Z,43.94
2019-02-15T10:56:29.319Z,44.14
2019-02-15T10:57:29.311Z,45.77
2019-02-15T10:58:29.295Z,45.75
2019-02-15T10:59:29.301Z,44.45
2019-02-15T11:00:29.282Z,43.23
2019-02-15T11:01:29.269Z,45.47
2019-02-15T11:02:29.251Z,44.85
2019-02-15T11:03:29.239Z,45.34
2019-02-15T11:04:29.263Z,45.45
2019-02-15T11:05:29.220Z,45.12
2019-02-15T11:06:29.218Z,44.20
2019-02-15T11:07:29.210Z,42.77
2019-02-15T11:08:29.192Z,42.88
2019-02-15T11:09:29.186Z,44.28
2019-02-15T11:10:29.233Z,44.18
2019-02-15T11:11:29.162Z,44.69
2019-02-15T11:12:29.136Z,44.18
2019-02-15T11:13:29.128Z,43.77
2019-02-15T11:14:29.153Z,42.65
2019-02-15T11:15:29.133Z,43.67
2019-02-15T11:16:29.100Z,42.45
2019-02-15T11:17:29.092Z,44.49
2019-02-15T11:18:29.096Z,44.69
2019-02-15T11:19:29.153Z,42.83
2019-02-15T11:20:29.127Z,43.65
2019-02-15T11:21:29.088Z,43.93
2019-02-15T11:22:29.193Z,42.10
2019-02-15T11:23:29.081Z,42.31
2019-02-15T11:24:29.113Z,43.12
2019-02-15T11:25:29.046Z,42.31
2019-02-15T11:26:28.990Z,41.78
2019-02-15T11:27:28.971Z,42.00
2019-02-15T11:28:28.959Z,43.00
2019-02-15T11:29:28.947Z,42.39
2019-02-15T11:30:28.962Z,41.99
2019-02-15T11:31:28.926Z,41.78
2019-02-15T11:32:28.922Z,41.17
2019-02-15T11:33:28.908Z,41.88
2019-02-15T11:34:28.900Z,42.37
2019-02-15T11:35:28.913Z,41.05
2019-02-15T11:36:29.885Z,41.35
2019-02-15T11:37:28.873Z,40.23
2019-02-15T11:38:28.861Z,41.27
2019-02-15T11:39:28.836Z,42.27
2019-02-15T11:40:28.834Z,40.95
2019-02-15T11:41:28.833Z,41.64
2019-02-15T11:42:28.816Z,39.61
2019-02-15T11:43:28.833Z,40.72
2019-02-15T11:44:28.871Z,40.83
2019-02-15T11:45:28.828Z,40.22
2019-02-15T11:46:28.763Z,39.49
2019-02-15T11:47:28.748Z,39.79
2019-02-15T11:48:29.530Z,40.91
2019-02-15T11:49:28.729Z,40.00
2019-02-15T11:50:28.738Z,40.09
2019-02-15T11:51:28.753Z,39.69
2019-02-15T11:52:28.697Z,40.09
2019-02-15T11:53:28.686Z,41.01
2019-02-15T11:54:28.704Z,41.70
2019-02-15T11:55:28.671Z,40.91
2019-02-15T11:56:28.678Z,39.78
2019-02-15T11:57:28.643Z,39.37
2019-02-15T11:58:28.634Z,40.20
2019-02-15T11:59:28.622Z,40.81
2019-02-15T12:00:28.611Z,39.37
2019-02-15T12:01:28.620Z,38.27
2019-02-15T12:02:28.586Z,41.91
2019-02-15T12:03:28.585Z,39.78
2019-02-15T12:04:28.569Z,39.78
2019-02-15T12:05:28.568Z,40.08
2019-02-15T12:06:28.568Z,40.69
2019-02-15T12:07:28.528Z,39.87
2019-02-15T12:08:28.534Z,39.78
2019-02-15T12:09:28.515Z,39.17
2019-02-15T12:10:28.515Z,39.57
2019-02-15T12:11:28.531Z,38.74
2019-02-15T12:12:28.489Z,39.45
2019-02-15T12:13:28.516Z,39.96
2019-02-15T12:14:28.458Z,39.86
2019-02-15T12:15:28.474Z,39.45
2019-02-15T12:16:28.454Z,39.33
2019-02-15T12:17:28.486Z,39.84
2019-02-15T12:18:28.425Z,39.43
2019-02-15T12:19:28.411Z,39.84
2019-02-15T12:20:28.416Z,38.42
2019-02-15T12:21:28.423Z,39.31
2019-02-15T12:22:28.391Z,39.82
2019-02-15T12:23:28.639Z,38.70
2019-02-15T12:24:28.354Z,39.42
2019-02-15T12:25:28.335Z,38.60
2019-02-15T12:26:28.358Z,38.50
2019-02-15T12:27:28.324Z,39.42
2019-02-15T12:28:28.312Z,38.20
2019-02-15T12:29:28.297Z,38.70
2019-02-15T12:30:28.292Z,39.51
2019-02-15T12:31:28.272Z,38.59
2019-02-15T12:32:28.302Z,37.77
2019-02-15T12:33:28.255Z,37.27
2019-02-15T12:34:28.250Z,38.99
2019-02-15T12:35:28.250Z,37.67
2019-02-15T12:36:28.242Z,37.65
2019-02-15T12:37:28.239Z,37.45
2019-02-15T12:38:28.197Z,37.65
2019-02-15T12:39:28.200Z,37.15
2019-02-15T12:40:28.184Z,37.86
2019-02-15T12:41:28.166Z,37.65
2019-02-15T12:42:28.185Z,37.45
2019-02-15T12:43:28.166Z,36.74
2019-02-15T12:44:28.160Z,37.25
2019-02-15T12:45:28.154Z,37.65
2019-02-15T12:46:28.122Z,37.35
2019-02-15T12:47:28.126Z,37.05
2019-02-15T12:48:28.132Z,37.05
2019-02-15T12:49:28.099Z,36.65
2019-02-15T12:50:28.076Z,37.65
2019-02-15T12:51:28.064Z,36.94
2019-02-15T12:52:28.053Z,37.05